Aviation Digital Data Service (ADDS)

Output produced by METARs form (0052 UTC 27 April 2018)
found at http://aviationweather.gov/adds/metars/
 
METAR text: KMFR 262353Z 29007KT 10SM CLR 29/06 A2976 RMK AO2 SLP069 T02940061 10306 20206 56034
Conditions at: KMFR (MEDFORD , OR, US) observed 2353 UTC 26 April 2018
Temperature: 29.4°C (85°F)
Dewpoint: 6.1°C (43°F) [RH = 23%]
Pressure (altimeter): 29.76 inches Hg (1007.9 mb)
[Sea-level pressure: 1006.9 mb]
Winds: from the WNW (290 degrees) at 8 MPH (7 knots; 3.6 m/s)
Visibility: 10 or more miles (16+ km)
Ceiling: at least 12,000 feet AGL
Clouds: sky clear below 12,000 feet AGL
Weather: no significant weather observed at this time

Forecast for: KMFR (MEDFORD , OR, US)
Text: KMFR 262320Z 2700/2724 31008KT P6SM BKN060 BKN250
Forecast period: 0000 to 0400 UTC 27 April 2018
Forecast type: FROM: standard forecast or significant change
Winds: from the NW (310 degrees) at 9 MPH (8 knots; 4.2 m/s)
Visibility: 6 or more miles (10+ km)
Ceiling: 6000 feet AGL
Clouds: broken clouds at 6000 feet AGL
broken clouds at 25000 feet AGL
Weather: no significant weather forecast for this period
Forecast for: KMFR (MEDFORD , OR, US)
Text: KMFR 262320Z 2700/2724 31008KT P6SM BKN060 BKN250
Forecast period: 0000 to 0400 UTC 27 April 2018
Forecast type: FROM: standard forecast or significant change
Winds: from the NW (310 degrees) at 9 MPH (8 knots; 4.2 m/s)
Visibility: 6 or more miles (10+ km)
Ceiling: 6000 feet AGL
Clouds: broken clouds at 6000 feet AGL
broken clouds at 25000 feet AGL
Weather: no significant weather forecast for this period
Forecast for: KMFR (MEDFORD , OR, US)
Text: KMFR 262320Z 2700/2724 31008KT P6SM BKN060 BKN250
Forecast period: 0400 to 1500 UTC 27 April 2018
Forecast type: FROM: standard forecast or significant change
Winds: variable direction winds at 3 MPH (3 knots; 1.6 m/s)
Visibility: 6 or more miles (10+ km)
Ceiling: 5000 feet AGL
Clouds: overcast cloud deck at 5000 feet AGL
Weather: no significant weather forecast for this period
Forecast for: KMFR (MEDFORD , OR, US)
Text: KMFR 262320Z 2700/2724 31008KT P6SM BKN060 BKN250
Forecast period: 0400 to 1500 UTC 27 April 2018
Forecast type: FROM: standard forecast or significant change
Winds: variable direction winds at 3 MPH (3 knots; 1.6 m/s)
Visibility: 6 or more miles (10+ km)
Ceiling: 5000 feet AGL
Clouds: overcast cloud deck at 5000 feet AGL
Weather: no significant weather forecast for this period
Forecast for: KMFR (MEDFORD , OR, US)
Text: KMFR 262320Z 2700/2724 31008KT P6SM BKN060 BKN250
Forecast period: 1500 to 2100 UTC 27 April 2018
Forecast type: FROM: standard forecast or significant change
Winds: variable direction winds at 3 MPH (3 knots; 1.6 m/s)
Visibility: 6 or more miles (10+ km)
Ceiling: 4000 feet AGL
Clouds: overcast cloud deck at 4000 feet AGL
Weather: VCSH  (showers in vicinity)
Forecast for: KMFR (MEDFORD , OR, US)
Text: KMFR 262320Z 2700/2724 31008KT P6SM BKN060 BKN250
Forecast period: 1500 to 2100 UTC 27 April 2018
Forecast type: FROM: standard forecast or significant change
Winds: variable direction winds at 3 MPH (3 knots; 1.6 m/s)
Visibility: 6 or more miles (10+ km)
Ceiling: 4000 feet AGL
Clouds: overcast cloud deck at 4000 feet AGL
Weather: VCSH  (showers in vicinity)
Forecast for: KMFR (MEDFORD , OR, US)
Text: KMFR 262320Z 2700/2724 31008KT P6SM BKN060 BKN250
Forecast period: 2100 UTC 27 April 2018 to 0000 UTC 28 April 2018
Forecast type: FROM: standard forecast or significant change
Winds: variable direction winds at 3 MPH (3 knots; 1.6 m/s)
Visibility: 6 or more miles (10+ km)
Ceiling: 5000 feet AGL
Clouds: overcast cloud deck at 5000 feet AGL
Weather: -SHRA  (light rain showers)
Forecast for: KMFR (MEDFORD , OR, US)
Text: KMFR 262320Z 2700/2724 31008KT P6SM BKN060 BKN250
Forecast period: 2100 UTC 27 April 2018 to 0000 UTC 28 April 2018
Forecast type: FROM: standard forecast or significant change
Winds: variable direction winds at 3 MPH (3 knots; 1.6 m/s)
Visibility: 6 or more miles (10+ km)
Ceiling: 5000 feet AGL
Clouds: overcast cloud deck at 5000 feet AGL
Weather: -SHRA  (light rain showers)